createdAt,value
2019-01-31T00:02:16.987Z,2.33
2019-01-31T00:04:55.262Z,2.40
2019-01-31T00:08:11.606Z,2.97
2019-01-31T00:11:02.402Z,2.20
2019-01-31T00:14:24.813Z,2.07
2019-01-31T00:17:40.867Z,1.90
2019-01-31T00:20:34.779Z,2.10
2019-01-31T00:23:38.505Z,2.83
2019-01-31T00:26:33.819Z,1.97
2019-01-31T00:29:33.789Z,2.07
2019-01-31T00:32:54.971Z,1.57
2019-01-31T00:35:58.642Z,1.73
2019-01-31T00:39:05.108Z,2.20
2019-01-31T00:42:01.628Z,1.67
2019-01-31T00:45:07.552Z,2.47
2019-01-31T00:48:23.693Z,1.90
2019-01-31T00:51:11.023Z,2.13
2019-01-31T00:54:21.579Z,2.57
2019-01-31T00:57:31.500Z,1.67
2019-01-31T01:00:26.060Z,2.30
2019-01-31T01:03:25.011Z,1.10
2019-01-31T01:06:16.944Z,1.80
2019-01-31T01:09:10.866Z,2.10
2019-01-31T01:12:19.460Z,2.67
2019-01-31T01:15:20.911Z,1.70
2019-01-31T01:17:58.656Z,1.60
2019-01-31T01:20:56.566Z,2.70
2019-01-31T01:23:31.643Z,1.70
2019-01-31T01:26:27.706Z,2.30
2019-01-31T01:29:33.244Z,1.83
2019-01-31T01:32:20.489Z,2.20
2019-01-31T01:35:04.626Z,1.67
2019-01-31T01:38:14.551Z,2.53
2019-01-31T01:41:04.551Z,2.53
2019-01-31T01:43:56.664Z,1.90
2019-01-31T01:46:42.304Z,2.40
2019-01-31T01:49:57.377Z,1.90
2019-01-31T01:52:51.263Z,2.30
2019-01-31T01:55:36.846Z,1.90
2019-01-31T01:58:34.798Z,2.27
2019-01-31T02:01:51.630Z,2.40
2019-01-31T02:05:07.623Z,1.70
2019-01-31T02:07:55.767Z,1.63
2019-01-31T02:11:19.412Z,2.53
2019-01-31T02:14:13.786Z,2.17
2019-01-31T02:16:57.544Z,2.50
2019-01-31T02:19:59.552Z,1.97
2019-01-31T02:23:08.688Z,2.73
2019-01-31T02:25:52.314Z,2.23
2019-01-31T02:29:00.819Z,3.00
2019-01-31T02:31:35.863Z,2.70
2019-01-31T02:34:42.166Z,2.53
2019-01-31T02:37:33.412Z,2.90
2019-01-31T02:40:45.798Z,2.80
2019-01-31T02:43:40.323Z,2.80
2019-01-31T02:46:38.353Z,2.97
2019-01-31T02:49:39.531Z,2.57
2019-01-31T02:52:30.105Z,2.80
2019-01-31T02:55:39.969Z,3.70
2019-01-31T02:58:43.899Z,4.13
2019-01-31T03:02:14.906Z,3.77
2019-01-31T03:05:05.909Z,3.07
2019-01-31T03:08:20.723Z,4.27
2019-01-31T03:11:28.535Z,4.30
2019-01-31T03:14:30.408Z,4.53
2019-01-31T03:17:21.498Z,4.00
2019-01-31T03:20:17.280Z,4.60
2019-01-31T03:23:22.558Z,5.07
2019-01-31T03:26:32.305Z,5.10
2019-01-31T03:29:16.235Z,5.60
2019-01-31T03:32:33.701Z,4.60
2019-01-31T03:35:33.218Z,5.10
2019-01-31T03:38:12.528Z,6.03
2019-01-31T03:41:16.977Z,6.30
2019-01-31T03:43:53.088Z,6.60
2019-01-31T03:46:49.145Z,6.60
2019-01-31T03:49:44.027Z,6.30
2019-01-31T03:52:40.598Z,6.30
2019-01-31T03:55:55.463Z,8.00
2019-01-31T03:58:30.715Z,6.87
2019-01-31T04:01:27.359Z,6.00
2019-01-31T04:04:01.611Z,6.80
2019-01-31T04:06:35.631Z,6.43
2019-01-31T04:09:08.272Z,6.83
2019-01-31T04:11:37.371Z,7.20
2019-01-31T04:14:06.334Z,8.03
2019-01-31T04:16:35.322Z,7.63
2019-01-31T04:19:04.424Z,7.80
2019-01-31T04:21:33.365Z,6.30
2019-01-31T04:24:02.278Z,8.70
2019-01-31T04:26:31.258Z,6.30
2019-01-31T04:29:00.070Z,8.97
2019-01-31T04:31:29.044Z,6.27
2019-01-31T04:33:57.861Z,7.17
2019-01-31T04:36:26.835Z,7.90
2019-01-31T04:38:55.643Z,7.40
2019-01-31T04:41:24.547Z,7.80
2019-01-31T04:43:53.608Z,8.17
2019-01-31T04:46:22.514Z,7.83
2019-01-31T04:48:51.339Z,7.77
2019-01-31T04:51:20.229Z,8.97
2019-01-31T04:53:49.197Z,7.90
2019-01-31T04:56:18.170Z,8.63
2019-01-31T04:58:46.975Z,7.77
2019-01-31T05:01:16.038Z,8.87
2019-01-31T05:03:45.019Z,8.87
2019-01-31T05:06:13.967Z,7.67
2019-01-31T05:08:42.813Z,8.73
2019-01-31T05:11:11.641Z,8.97
2019-01-31T05:13:40.629Z,8.40
2019-01-31T05:16:09.609Z,9.83
2019-01-31T05:18:38.507Z,7.60
2019-01-31T05:21:07.322Z,8.47
2019-01-31T05:23:36.219Z,7.63
2019-01-31T05:26:05.280Z,9.83
2019-01-31T05:28:34.112Z,8.63
2019-01-31T05:31:03.180Z,8.13
2019-01-31T05:33:32.317Z,8.43
2019-01-31T05:36:01.220Z,8.23
2019-01-31T05:38:30.183Z,8.50
2019-01-31T05:40:59.016Z,8.60
2019-01-31T05:43:27.999Z,8.20
2019-01-31T05:45:56.887Z,8.30
2019-01-31T05:48:25.849Z,8.00
2019-01-31T05:50:55.016Z,8.43
2019-01-31T05:53:23.888Z,9.80
2019-01-31T05:55:52.811Z,8.63
2019-01-31T05:58:21.655Z,8.10
2019-01-31T06:00:50.601Z,9.03
2019-01-31T06:03:19.487Z,8.57
2019-01-31T06:05:48.466Z,9.83
2019-01-31T06:08:17.397Z,9.10
2019-01-31T06:10:46.375Z,8.90
2019-01-31T06:13:15.275Z,9.70
2019-01-31T06:15:44.186Z,8.47
2019-01-31T06:18:13.212Z,9.00
2019-01-31T06:20:42.158Z,7.90
2019-01-31T06:23:11.002Z,10.00
2019-01-31T06:25:39.968Z,8.33
2019-01-31T06:28:08.910Z,8.50
2019-01-31T06:30:37.828Z,9.23
2019-01-31T06:33:06.866Z,9.37
2019-01-31T06:35:35.792Z,9.57
2019-01-31T06:38:04.778Z,9.10
2019-01-31T06:40:33.766Z,9.30
2019-01-31T06:43:02.809Z,8.80
2019-01-31T06:45:31.663Z,10.03
2019-01-31T06:48:00.575Z,10.43
2019-01-31T06:50:29.503Z,8.80
2019-01-31T06:52:58.459Z,8.40
2019-01-31T06:55:27.378Z,9.70
2019-01-31T06:57:56.200Z,9.33
2019-01-31T07:00:25.579Z,9.30
2019-01-31T07:02:54.401Z,9.60
2019-01-31T07:05:23.403Z,8.33
2019-01-31T07:07:52.284Z,8.57
2019-01-31T07:10:23.681Z,8.10
2019-01-31T07:12:52.711Z,9.00
2019-01-31T07:15:21.713Z,8.20
2019-01-31T07:17:50.670Z,7.90
2019-01-31T07:20:19.642Z,9.17
2019-01-31T07:22:48.551Z,10.67
2019-01-31T07:25:19.970Z,8.17
2019-01-31T07:27:48.859Z,9.00
2019-01-31T07:30:18.034Z,9.00
2019-01-31T07:32:47.029Z,7.93
2019-01-31T07:35:16.189Z,8.70
2019-01-31T07:37:45.162Z,8.30
2019-01-31T07:40:16.059Z,8.70
2019-01-31T07:42:44.891Z,8.83
2019-01-31T07:45:19.811Z,8.50
2019-01-31T07:47:48.718Z,8.37
2019-01-31T07:50:18.078Z,9.33
2019-01-31T07:52:47.076Z,8.43
2019-01-31T07:55:16.024Z,8.90
2019-01-31T07:57:44.991Z,8.67
2019-01-31T08:00:15.362Z,9.20
2019-01-31T08:02:44.391Z,8.37
2019-01-31T08:05:16.027Z,9.20
2019-01-31T08:07:44.963Z,8.20
2019-01-31T08:10:22.130Z,8.10
2019-01-31T08:12:51.257Z,8.43
2019-01-31T08:15:20.231Z,9.77
2019-01-31T08:17:49.211Z,9.47
2019-01-31T08:20:18.210Z,9.90
2019-01-31T08:22:47.185Z,10.83
2019-01-31T08:25:18.054Z,10.30
2019-01-31T08:27:47.259Z,10.73
2019-01-31T08:30:18.749Z,10.70
2019-01-31T08:32:47.648Z,12.00
2019-01-31T08:35:16.710Z,12.37
2019-01-31T08:37:45.627Z,13.70
2019-01-31T08:40:14.643Z,15.33
2019-01-31T08:42:43.636Z,12.93
2019-01-31T08:45:12.788Z,16.23
2019-01-31T08:47:41.616Z,16.17
2019-01-31T08:50:13.955Z,16.80
2019-01-31T08:52:42.834Z,18.27
2019-01-31T08:55:12.027Z,19.10
2019-01-31T08:57:41.017Z,19.73
2019-01-31T09:00:13.783Z,19.33
2019-01-31T09:02:42.811Z,19.17
2019-01-31T09:05:11.897Z,20.87
2019-01-31T09:07:40.909Z,18.97
2019-01-31T09:10:12.669Z,20.80
2019-01-31T09:12:41.707Z,22.17
2019-01-31T09:15:12.021Z,19.90
2019-01-31T09:17:41.145Z,21.67
2019-01-31T09:20:11.615Z,23.93
2019-01-31T09:22:54.718Z,20.30
2019-01-31T09:25:41.059Z,21.33
2019-01-31T09:28:54.823Z,20.20
2019-01-31T09:32:02.791Z,21.83
2019-01-31T09:34:37.828Z,22.20
2019-01-31T09:37:53.634Z,23.00
2019-01-31T09:41:08.659Z,21.73
2019-01-31T09:44:08.360Z,21.47
2019-01-31T09:47:04.723Z,21.50
2019-01-31T09:50:07.807Z,22.87
2019-01-31T09:53:12.702Z,22.37
2019-01-31T09:56:24.459Z,22.07
2019-01-31T09:59:25.359Z,24.87
2019-01-31T10:02:25.410Z,26.13
2019-01-31T10:05:28.899Z,26.17
2019-01-31T10:08:20.851Z,25.97
2019-01-31T10:11:32.171Z,27.73
2019-01-31T10:14:39.312Z,26.23
2019-01-31T10:17:57.253Z,27.60
2019-01-31T10:21:34.662Z,27.73
2019-01-31T10:24:56.622Z,26.70
2019-01-31T10:28:03.230Z,23.70
2019-01-31T10:31:13.250Z,28.20
2019-01-31T10:34:00.222Z,27.90
2019-01-31T10:36:49.626Z,29.40
2019-01-31T10:40:02.377Z,26.60
2019-01-31T10:42:52.239Z,28.10
2019-01-31T10:46:00.111Z,27.17
2019-01-31T10:49:15.932Z,28.30
2019-01-31T10:52:13.782Z,27.60
2019-01-31T10:55:14.436Z,25.80
2019-01-31T10:58:16.291Z,28.40
2019-01-31T11:00:58.481Z,27.80
2019-01-31T11:03:59.814Z,26.90
2019-01-31T11:06:59.576Z,27.50
2019-01-31T11:09:55.838Z,27.10
2019-01-31T11:12:47.548Z,28.33
2019-01-31T11:15:51.210Z,28.53
2019-01-31T11:18:48.538Z,25.63
2019-01-31T11:21:48.280Z,26.70
2019-01-31T11:25:07.922Z,26.30
2019-01-31T11:28:20.268Z,26.30
2019-01-31T11:31:12.100Z,24.93
2019-01-31T11:34:17.163Z,25.40
2019-01-31T11:37:17.024Z,25.00
2019-01-31T11:40:18.366Z,25.57
2019-01-31T11:43:13.027Z,26.53
2019-01-31T11:46:04.365Z,23.70
2019-01-31T11:49:17.725Z,23.03
2019-01-31T11:52:29.631Z,25.90
2019-01-31T11:55:46.773Z,24.70
2019-01-31T11:58:30.079Z,24.00
2019-01-31T12:00:59.157Z,24.60
2019-01-31T12:03:28.042Z,25.87
2019-01-31T12:05:56.999Z,25.27
2019-01-31T12:08:25.891Z,26.27
2019-01-31T12:10:54.907Z,25.50
2019-01-31T12:13:23.961Z,25.27
2019-01-31T12:15:52.973Z,25.10
2019-01-31T12:18:21.994Z,23.80
2019-01-31T12:20:51.083Z,23.53
2019-01-31T12:23:20.078Z,24.00
2019-01-31T12:25:49.038Z,24.67
2019-01-31T12:28:18.064Z,23.87
2019-01-31T12:30:46.990Z,24.20
2019-01-31T12:33:15.960Z,22.70
2019-01-31T12:35:44.927Z,25.93
2019-01-31T12:38:13.845Z,24.10
2019-01-31T12:40:42.756Z,22.60
2019-01-31T12:43:11.663Z,26.63
2019-01-31T12:45:40.686Z,21.93
2019-01-31T12:48:09.773Z,22.83
2019-01-31T12:50:38.669Z,20.47
2019-01-31T12:53:07.559Z,22.47
2019-01-31T12:55:36.478Z,24.10
2019-01-31T12:58:06.196Z,21.60
2019-01-31T13:00:35.266Z,22.50
2019-01-31T13:03:04.450Z,22.30
2019-01-31T13:05:33.420Z,22.57
2019-01-31T13:08:02.521Z,22.50
2019-01-31T13:10:31.519Z,23.10
2019-01-31T13:13:00.507Z,22.43
2019-01-31T13:15:29.646Z,20.27
2019-01-31T13:18:01.520Z,20.67
2019-01-31T13:20:30.586Z,20.60
2019-01-31T13:22:59.573Z,21.10
2019-01-31T13:25:29.236Z,21.20
2019-01-31T13:27:58.072Z,21.53
2019-01-31T13:30:27.025Z,19.80
2019-01-31T13:32:57.189Z,19.00
2019-01-31T13:35:26.272Z,22.47
2019-01-31T13:37:55.245Z,21.10
2019-01-31T13:40:25.773Z,21.43
2019-01-31T13:42:55.279Z,21.23
2019-01-31T13:45:29.179Z,19.60
2019-01-31T13:48:00.159Z,19.50
2019-01-31T13:50:29.187Z,18.93
2019-01-31T13:52:58.091Z,18.90
2019-01-31T13:55:29.210Z,19.47
2019-01-31T13:57:58.346Z,19.67
2019-01-31T14:00:27.372Z,19.30
2019-01-31T14:02:56.356Z,18.90
2019-01-31T14:05:25.422Z,17.60
2019-01-31T14:07:55.896Z,17.13
2019-01-31T14:10:45.706Z,17.83
2019-01-31T14:13:14.647Z,16.87
2019-01-31T14:15:43.606Z,17.00
2019-01-31T14:18:12.535Z,17.20
2019-01-31T14:20:41.413Z,16.57
2019-01-31T14:23:10.362Z,15.90
2019-01-31T14:25:39.515Z,15.17
2019-01-31T14:28:08.610Z,16.30
2019-01-31T14:30:39.042Z,15.50
2019-01-31T14:33:15.635Z,13.37
2019-01-31T14:35:44.687Z,16.03
2019-01-31T14:38:13.535Z,15.53
2019-01-31T14:40:42.507Z,14.70
2019-01-31T14:43:11.426Z,15.17
2019-01-31T14:45:40.343Z,15.30
2019-01-31T14:48:09.321Z,12.90
2019-01-31T14:50:38.325Z,13.83
2019-01-31T14:53:07.359Z,15.53
2019-01-31T14:55:36.352Z,13.40
2019-01-31T14:58:07.320Z,13.63
2019-01-31T15:00:36.313Z,14.40
2019-01-31T15:03:05.616Z,14.57
2019-01-31T15:05:36.749Z,15.77
2019-01-31T15:08:05.731Z,14.47
2019-01-31T15:10:34.715Z,15.20
2019-01-31T15:13:03.625Z,13.87
2019-01-31T15:15:32.555Z,13.00
2019-01-31T15:18:01.438Z,14.00
2019-01-31T15:20:38.316Z,14.33
2019-01-31T15:23:06.419Z,13.40
2019-01-31T15:25:35.306Z,16.27
2019-01-31T15:28:04.370Z,14.07
2019-01-31T15:30:34.257Z,13.07
2019-01-31T15:33:05.116Z,14.90
2019-01-31T15:35:34.243Z,14.23
2019-01-31T15:38:03.193Z,14.03
2019-01-31T15:40:37.809Z,13.20
2019-01-31T15:43:07.066Z,15.50
2019-01-31T15:45:36.055Z,14.00
2019-01-31T15:48:05.940Z,14.53
2019-01-31T15:50:35.126Z,15.90
2019-01-31T15:53:04.720Z,15.30
2019-01-31T15:55:33.742Z,14.30
2019-01-31T15:58:02.730Z,15.40
2019-01-31T16:00:52.350Z,15.70
2019-01-31T16:03:25.226Z,17.13
2019-01-31T16:05:55.095Z,15.67
2019-01-31T16:08:24.330Z,14.67
2019-01-31T16:10:53.394Z,16.57
2019-01-31T16:13:22.374Z,18.20
2019-01-31T16:15:51.560Z,16.20
2019-01-31T16:18:20.530Z,17.10
2019-01-31T16:20:49.521Z,17.03
2019-01-31T16:23:18.569Z,20.50
2019-01-31T16:25:48.019Z,16.27
2019-01-31T16:28:17.094Z,18.30
2019-01-31T16:30:45.936Z,17.47
2019-01-31T16:33:14.823Z,17.50
2019-01-31T16:35:44.350Z,18.67
2019-01-31T16:38:13.275Z,18.23
2019-01-31T16:40:42.197Z,18.53
2019-01-31T16:43:11.234Z,18.13
2019-01-31T16:45:40.112Z,20.73
2019-01-31T16:48:09.099Z,20.53
2019-01-31T16:50:38.029Z,19.97
2019-01-31T16:53:08.234Z,21.40
2019-01-31T16:55:37.229Z,20.37
2019-01-31T16:58:07.889Z,19.00
2019-01-31T17:00:37.018Z,20.67
2019-01-31T17:03:06.820Z,20.40
2019-01-31T17:05:35.835Z,20.67
2019-01-31T17:08:05.506Z,21.30
2019-01-31T17:10:34.502Z,21.37
2019-01-31T17:13:04.037Z,22.30
2019-01-31T17:15:32.923Z,19.90
2019-01-31T17:18:01.764Z,22.60
2019-01-31T17:20:42.370Z,20.80
2019-01-31T17:23:11.345Z,23.10
2019-01-31T17:25:40.309Z,20.60
2019-01-31T17:28:09.235Z,19.00
2019-01-31T17:30:38.206Z,18.50
2019-01-31T17:33:07.202Z,19.30
2019-01-31T17:35:36.141Z,19.90
2019-01-31T17:38:05.424Z,19.43
2019-01-31T17:40:39.290Z,20.23
2019-01-31T17:43:09.315Z,19.07
2019-01-31T17:45:38.312Z,18.80
2019-01-31T17:48:08.373Z,19.20
2019-01-31T17:50:37.434Z,19.17
2019-01-31T17:53:06.420Z,19.90
2019-01-31T17:55:35.354Z,19.53
2019-01-31T17:58:04.587Z,19.83
2019-01-31T18:00:59.796Z,19.00
2019-01-31T18:03:29.036Z,18.57
2019-01-31T18:05:58.402Z,18.90
2019-01-31T18:08:27.403Z,18.37
2019-01-31T18:10:56.382Z,17.70
2019-01-31T18:13:25.550Z,18.60
2019-01-31T18:15:54.443Z,19.37
2019-01-31T18:18:23.532Z,19.70
2019-01-31T18:20:52.587Z,19.17
2019-01-31T18:23:21.491Z,19.63
2019-01-31T18:25:50.496Z,18.37
2019-01-31T18:28:19.434Z,18.30
2019-01-31T18:30:48.408Z,16.43
2019-01-31T18:33:17.339Z,19.30
2019-01-31T18:35:46.304Z,18.03
2019-01-31T18:38:15.338Z,17.13
2019-01-31T18:40:44.471Z,18.03
2019-01-31T18:43:13.375Z,18.50
2019-01-31T18:45:52.675Z,17.10
2019-01-31T18:48:13.050Z,16.73
2019-01-31T18:50:42.908Z,18.80
2019-01-31T18:53:11.880Z,19.47
2019-01-31T18:55:40.855Z,18.97
2019-01-31T18:58:09.860Z,17.43
2019-01-31T19:00:42.843Z,18.77
2019-01-31T19:03:11.813Z,19.03
2019-01-31T19:05:40.786Z,20.27
2019-01-31T19:08:09.820Z,18.90
2019-01-31T19:10:43.430Z,20.20
2019-01-31T19:13:09.583Z,21.60
2019-01-31T19:15:38.562Z,20.17
2019-01-31T19:18:07.546Z,21.20
2019-01-31T19:20:36.896Z,20.13
2019-01-31T19:23:07.514Z,20.10
2019-01-31T19:25:36.430Z,19.37
2019-01-31T19:28:06.350Z,21.90
2019-01-31T19:30:36.891Z,21.63
2019-01-31T19:33:06.599Z,22.07
2019-01-31T19:35:36.049Z,22.30
2019-01-31T19:38:06.734Z,24.53
2019-01-31T19:40:36.836Z,23.83
2019-01-31T19:43:06.091Z,24.50
2019-01-31T19:45:37.152Z,25.07
2019-01-31T19:48:06.645Z,25.23
2019-01-31T19:50:35.711Z,26.53
2019-01-31T19:53:05.304Z,24.97
2019-01-31T19:55:34.581Z,25.10
2019-01-31T19:58:03.557Z,25.73
2019-01-31T20:00:32.555Z,24.00
2019-01-31T20:03:01.512Z,28.13
2019-01-31T20:05:30.528Z,26.80
2019-01-31T20:07:59.482Z,26.60
2019-01-31T20:10:28.889Z,28.97
2019-01-31T20:12:57.976Z,27.50
2019-01-31T20:15:27.186Z,28.07
2019-01-31T20:17:56.229Z,27.83
2019-01-31T20:20:26.285Z,30.70
2019-01-31T20:22:56.363Z,30.07
2019-01-31T20:25:25.358Z,32.37
2019-01-31T20:27:54.337Z,29.73
2019-01-31T20:30:28.157Z,29.27
2019-01-31T20:32:57.603Z,29.87
2019-01-31T20:35:26.612Z,29.87
2019-01-31T20:37:55.749Z,29.00
2019-01-31T20:40:26.906Z,29.27
2019-01-31T20:42:56.089Z,29.17
2019-01-31T20:45:25.309Z,29.40
2019-01-31T20:47:54.245Z,28.10
2019-01-31T20:50:31.183Z,28.63
2019-01-31T20:53:00.155Z,28.70
2019-01-31T20:55:29.205Z,31.30
2019-01-31T20:57:58.203Z,30.60
2019-01-31T21:00:30.169Z,29.13
2019-01-31T21:02:59.274Z,27.17
2019-01-31T21:05:28.506Z,30.50
2019-01-31T21:07:57.485Z,27.90
2019-01-31T21:10:26.682Z,29.00
2019-01-31T21:12:55.686Z,29.47
2019-01-31T21:15:24.841Z,29.87
2019-01-31T21:17:54.114Z,27.63
2019-01-31T21:20:26.035Z,28.87
2019-01-31T21:22:54.147Z,27.50
2019-01-31T21:25:23.138Z,26.63
2019-01-31T21:27:52.116Z,27.27
2019-01-31T21:30:30.256Z,28.03
2019-01-31T21:32:59.237Z,29.67
2019-01-31T21:35:29.323Z,29.07
2019-01-31T21:37:58.370Z,30.07
2019-01-31T21:40:28.764Z,28.40
2019-01-31T21:42:58.062Z,29.97
2019-01-31T21:45:27.067Z,30.13
2019-01-31T21:47:55.969Z,28.73
2019-01-31T21:50:25.467Z,28.83
2019-01-31T21:52:54.384Z,28.27
2019-01-31T21:55:23.409Z,31.30
2019-01-31T21:57:52.320Z,28.13
2019-01-31T22:00:23.495Z,26.77
2019-01-31T22:02:52.516Z,29.50
2019-01-31T22:05:21.500Z,31.10
2019-01-31T22:07:50.546Z,29.37
2019-01-31T22:10:19.794Z,29.87
2019-01-31T22:12:48.888Z,29.27
2019-01-31T22:15:20.172Z,28.30
2019-01-31T22:17:49.142Z,29.07
2019-01-31T22:20:18.209Z,27.20
2019-01-31T22:22:47.090Z,30.90
2019-01-31T22:25:17.785Z,28.70
2019-01-31T22:27:46.692Z,30.00
2019-01-31T22:30:20.996Z,29.13
2019-01-31T22:32:49.919Z,28.37
2019-01-31T22:35:18.808Z,28.80
2019-01-31T22:37:47.954Z,29.03
2019-01-31T22:40:17.234Z,26.93
2019-01-31T22:42:46.164Z,28.87
2019-01-31T22:45:17.076Z,28.40
2019-01-31T22:47:45.985Z,27.07
2019-01-31T22:50:16.690Z,27.40
2019-01-31T22:52:45.669Z,29.03
2019-01-31T22:55:15.475Z,29.20
2019-01-31T22:57:44.394Z,27.70
2019-01-31T23:01:22.532Z,29.47
2019-01-31T23:03:51.620Z,26.77
2019-01-31T23:06:20.537Z,27.90
2019-01-31T23:08:49.522Z,29.73
2019-01-31T23:11:18.494Z,27.67
2019-01-31T23:13:47.407Z,26.50
2019-01-31T23:16:16.311Z,29.63
2019-01-31T23:18:45.162Z,28.80
2019-01-31T23:21:14.152Z,28.57
2019-01-31T23:23:43.067Z,28.23
2019-01-31T23:26:11.967Z,28.20
2019-01-31T23:28:40.807Z,27.90
2019-01-31T23:31:09.714Z,28.30
2019-01-31T23:33:41.132Z,28.30
2019-01-31T23:36:09.303Z,26.37
2019-01-31T23:38:38.150Z,27.10
2019-01-31T23:41:07.275Z,28.60
2019-01-31T23:43:36.182Z,27.17
2019-01-31T23:46:05.493Z,26.30
2019-01-31T23:48:34.473Z,27.30
2019-01-31T23:51:03.398Z,26.70
2019-01-31T23:53:32.230Z,25.80
2019-01-31T23:56:01.102Z,26.07
2019-01-31T23:58:29.969Z,23.27
